Time;durP1;ratioP1;P1;durP2;ratioP2;P2;SDS_P1;SDS_P2;PMS_P1;PMS_P2;Temp;Humidity;BMP_temperature;BMP_pressure;BME280_temperature;BME280_humidity;BME280_pressure;Samples;Min_cycle;Max_cycle;Signal;HPM_P1;HPM_P2
2023/05/11 00:02:19;;;;;;;2.28;1.60;;;19.50;76.40;;;;;;5042668;28;45487;-73
2023/05/11 00:04:45;;;;;;;2.10;1.50;;;19.50;76.50;;;;;;5042479;28;45441;-73
2023/05/11 00:07:12;;;;;;;2.60;1.77;;;19.50;76.50;;;;;;5042130;28;47474;-73
2023/05/11 00:09:41;;;;;;;2.70;1.60;;;19.50;76.60;;;;;;5042351;28;45208;-73
2023/05/11 00:12:08;;;;;;;1.65;1.17;;;19.50;76.60;;;;;;5042380;28;45454;-73
2023/05/11 00:14:35;;;;;;;1.70;1.40;;;19.50;76.60;;;;;;5041980;28;45410;-73
2023/05/11 00:17:01;;;;;;;1.75;1.42;;;19.50;76.60;;;;;;5041632;28;45209;-74
2023/05/11 00:19:30;;;;;;;2.08;1.50;;;19.50;76.60;;;;;;5042193;28;45278;-73
2023/05/11 00:21:57;;;;;;;1.50;1.40;;;19.50;76.60;;;;;;5042534;28;45308;-73
2023/05/11 00:24:23;;;;;;;1.88;1.40;;;19.50;76.60;;;;;;5042324;28;45349;-73
2023/05/11 00:26:51;;;;;;;1.73;1.33;;;19.50;76.70;;;;;;5041831;28;46438;-73
2023/05/11 00:29:18;;;;;;;1.65;1.20;;;19.50;76.80;;;;;;5042046;28;45234;-73
2023/05/11 00:31:46;;;;;;;1.60;1.20;;;19.50;76.80;;;;;;5042306;28;45308;-73
2023/05/11 00:34:13;;;;;;;1.30;1.10;;;19.50;76.80;;;;;;5033658;28;45462;-73
2023/05/11 00:36:41;;;;;;;3.13;1.25;;;19.50;76.90;;;;;;5041463;28;46555;-73
2023/05/11 00:39:08;;;;;;;2.85;1.77;;;19.50;76.90;;;;;;5042376;28;45269;-72
2023/05/11 00:41:35;;;;;;;1.25;1.10;;;19.50;77.10;;;;;;5042328;28;45332;-73
2023/05/11 00:44:03;;;;;;;2.25;1.50;;;19.50;77.10;;;;;;5041775;28;45564;-73
2023/05/11 00:46:30;;;;;;;1.92;1.60;;;19.50;77.20;;;;;;5041324;28;47523;-73
2023/05/11 00:48:57;;;;;;;2.25;1.75;;;19.50;77.20;;;;;;5041750;28;45183;-73
2023/05/11 00:51:25;;;;;;;2.20;1.50;;;19.50;77.30;;;;;;5040261;28;45232;-73
2023/05/11 00:53:51;;;;;;;2.03;1.52;;;19.50;77.30;;;;;;5041771;28;45548;-73
2023/05/11 00:56:19;;;;;;;2.58;1.75;;;19.50;77.30;;;;;;5041370;28;46462;-74
2023/05/11 00:58:45;;;;;;;2.65;1.95;;;19.50;77.30;;;;;;5041899;28;45343;-73
2023/05/11 01:01:16;;;;;;;2.10;1.70;;;19.50;77.30;;;;;;5041992;28;45234;-73
2023/05/11 01:03:43;;;;;;;2.10;1.50;;;19.50;77.30;;;;;;5041734;27;45466;-73
2023/05/11 01:06:15;;;;;;;3.17;1.70;;;19.50;77.30;;;;;;5040522;28;47231;-73
2023/05/11 01:08:46;;;;;;;1.85;1.42;;;19.50;77.30;;;;;;5041267;27;45284;-73
2023/05/11 01:11:20;;;;;;;1.80;1.50;;;19.50;77.30;;;;;;5041929;28;45261;-74
2023/05/11 01:13:53;;;;;;;1.90;1.63;;;19.50;78.30;;;;;;5041303;27;45221;-73
2023/05/11 01:16:23;;;;;;;1.48;1.35;;;19.50;77.40;;;;;;5040811;28;46599;-73
2023/05/11 01:18:54;;;;;;;2.00;1.50;;;19.50;77.30;;;;;;5038411;28;45251;-73
2023/05/11 01:21:21;;;;;;;3.35;1.65;;;19.50;77.40;;;;;;5041547;28;45358;-74
2023/05/11 01:24:20;;;;;;;2.95;1.80;;;19.50;77.60;;;;;;5034211;27;45249;-73
2023/05/11 01:26:59;;;;;;;2.25;1.80;;;19.50;77.80;;;;;;5041198;27;45528;-73
2023/05/11 01:29:58;;;;;;;2.28;1.65;;;19.50;77.80;;;;;;5035350;28;45260;-73
2023/05/11 01:32:29;;;;;;;1.90;1.60;;;19.50;77.80;;;;;;5017648;28;45575;-73
2023/05/11 01:35:06;;;;;;;1.58;1.48;;;19.50;77.80;;;;;;5041364;28;45508;-73
2023/05/11 01:37:34;;;;;;;2.40;1.83;;;19.50;77.80;;;;;;5041309;28;45249;-74
2023/05/11 01:40:05;;;;;;;2.50;1.52;;;19.50;77.80;;;;;;5041308;28;45636;-73
2023/05/11 01:42:48;;;;;;;2.60;1.70;;;19.50;77.80;;;;;;5041581;28;45177;-74
2023/05/11 01:45:17;;;;;;;1.92;1.60;;;19.50;77.80;;;;;;5041336;28;45280;-74
2023/05/11 01:47:48;;;;;;;1.70;1.42;;;19.50;77.80;;;;;;5040934;28;46616;-74
2023/05/11 01:50:17;;;;;;;2.33;1.45;;;19.50;77.80;;;;;;5039592;28;45429;-75
2023/05/11 01:52:46;;;;;;;2.75;1.77;;;19.50;77.80;;;;;;5038313;28;45208;-74
2023/05/11 01:55:17;;;;;;;2.00;1.45;;;19.50;77.80;;;;;;5041179;28;45254;-73
2023/05/11 01:57:45;;;;;;;2.80;1.63;;;19.50;77.80;;;;;;5041301;28;47691;-73
2023/05/11 02:00:15;;;;;;;1.58;1.40;;;19.50;77.80;;;;;;5041119;28;45500;-74
2023/05/11 02:02:46;;;;;;;2.35;2.00;;;19.50;77.80;;;;;;5041219;28;45195;-74
2023/05/11 02:05:15;;;;;;;2.17;1.77;;;19.50;77.80;;;;;;5041304;28;45387;-74
2023/05/11 02:07:43;;;;;;;2.83;2.03;;;19.50;77.80;;;;;;5040729;27;45353;-74
2023/05/11 02:10:11;;;;;;;2.70;1.90;;;19.50;77.80;;;;;;5040895;28;45298;-74
2023/05/11 02:12:40;;;;;;;2.85;2.20;;;19.50;77.80;;;;;;5041181;28;45413;-74
2023/05/11 02:15:09;;;;;;;3.17;2.00;;;19.40;78.70;;;;;;5040895;28;45201;-74
2023/05/11 02:17:38;;;;;;;3.90;2.40;;;19.40;77.70;;;;;;5041068;28;46285;-73
2023/05/11 02:20:10;;;;;;;4.00;2.33;;;19.50;77.80;;;;;;5044077;28;45667;-73
2023/05/11 02:22:37;;;;;;;2.65;2.13;;;19.40;77.70;;;;;;5043913;28;45286;-74
2023/05/11 02:25:05;;;;;;;3.03;2.03;;;19.40;77.70;;;;;;5043815;28;45345;-74
2023/05/11 02:27:34;;;;;;;3.83;2.13;;;19.40;77.70;;;;;;5043804;28;46874;-74
2023/05/11 02:30:01;;;;;;;3.05;1.98;;;19.40;77.70;;;;;;5043647;28;45365;-74
2023/05/11 02:32:30;;;;;;;3.15;1.80;;;19.40;77.70;;;;;;5044198;28;45321;-74
2023/05/11 02:35:01;;;;;;;2.45;1.67;;;19.40;77.70;;;;;;5043572;28;45160;-74
2023/05/11 02:37:30;;;;;;;3.67;2.25;;;19.40;77.70;;;;;;5043649;28;45407;-73
2023/05/11 02:40:02;;;;;;;2.63;1.70;;;19.40;77.70;;;;;;5043337;28;46210;-74
2023/05/11 02:42:32;;;;;;;4.43;2.05;;;19.40;77.70;;;;;;5043741;28;45311;-74
2023/05/11 02:45:02;;;;;;;2.72;1.83;;;19.50;77.80;;;;;;5043564;27;45182;-74
2023/05/11 02:47:32;;;;;;;3.08;1.73;;;19.50;77.80;;;;;;5042666;28;47075;-74
2023/05/11 02:50:03;;;;;;;3.00;1.95;;;19.40;77.70;;;;;;5043377;27;45334;-74
2023/05/11 02:52:33;;;;;;;3.55;2.28;;;19.40;77.70;;;;;;5042326;27;45313;-74
2023/05/11 02:55:01;;;;;;;2.63;1.88;;;19.40;77.70;;;;;;5043317;28;45217;-74
2023/05/11 02:57:28;;;;;;;2.63;1.80;;;19.40;77.70;;;;;;5042928;28;48695;-74
2023/05/11 02:59:55;;;;;;;3.10;1.85;;;19.40;77.70;;;;;;5043345;28;45247;-74
2023/05/11 03:02:22;;;;;;;2.83;1.90;;;19.40;77.70;;;;;;5043475;28;45553;-74
2023/05/11 03:04:48;;;;;;;2.10;1.65;;;19.40;77.70;;;;;;5043387;27;45415;-73
2023/05/11 03:07:15;;;;;;;4.72;1.88;;;19.40;77.70;;;;;;5042689;28;46286;-74
2023/05/11 03:09:44;;;;;;;2.40;1.77;;;19.40;77.70;;;;;;5043562;28;45208;-74
2023/05/11 03:12:11;;;;;;;4.20;1.60;;;19.40;77.70;;;;;;5043504;28;45260;-74
2023/05/11 03:14:38;;;;;;;3.28;1.67;;;19.40;77.70;;;;;;5043002;28;45470;-74
2023/05/11 03:17:06;;;;;;;3.88;1.58;;;19.40;77.70;;;;;;5042428;28;47527;-74
2023/05/11 03:19:33;;;;;;;1.90;1.50;;;19.40;77.70;;;;;;5043152;28;45282;-74
2023/05/11 03:22:00;;;;;;;1.98;1.45;;;19.40;77.70;;;;;;5043122;28;45357;-74
2023/05/11 03:24:28;;;;;;;2.50;1.77;;;19.40;77.70;;;;;;5043128;27;45265;-73
2023/05/11 03:26:57;;;;;;;1.63;1.42;;;19.40;77.70;;;;;;5042664;28;47541;-74
2023/05/11 03:29:26;;;;;;;3.05;1.92;;;19.40;77.70;;;;;;5042329;28;45603;-73
2023/05/11 03:31:54;;;;;;;2.47;1.70;;;19.40;77.70;;;;;;5043091;28;45222;-73
2023/05/11 03:34:21;;;;;;;2.20;1.52;;;19.40;77.70;;;;;;5043308;28;45474;-73
2023/05/11 03:36:49;;;;;;;2.28;1.88;;;19.40;77.70;;;;;;5042540;28;48020;-73
2023/05/11 03:39:16;;;;;;;3.70;2.20;;;19.40;77.70;;;;;;5022656;27;45428;-74
2023/05/11 03:41:45;;;;;;;2.70;1.70;;;19.40;77.70;;;;;;5023369;28;45352;-73
2023/05/11 03:44:14;;;;;;;2.90;2.10;;;19.40;77.70;;;;;;5042711;28;45401;-74
2023/05/11 03:46:44;;;;;;;3.30;1.88;;;19.40;77.70;;;;;;5041558;28;48766;-74
2023/05/11 03:49:11;;;;;;;2.85;2.03;;;19.40;78.70;;;;;;5042775;28;45217;-74
2023/05/11 03:51:39;;;;;;;2.33;1.83;;;19.40;77.70;;;;;;5041466;28;45389;-74
2023/05/11 03:54:07;;;;;;;2.95;1.70;;;19.40;77.70;;;;;;5043148;28;45223;-73
2023/05/11 03:56:35;;;;;;;2.78;2.10;;;19.40;77.80;;;;;;5042439;28;47656;-74
2023/05/11 03:59:03;;;;;;;2.65;1.90;;;19.40;77.70;;;;;;5042833;28;45788;-73
2023/05/11 04:01:31;;;;;;;3.55;1.88;;;19.40;77.70;;;;;;5043135;28;45356;-73
2023/05/11 04:03:58;;;;;;;4.65;2.22;;;19.40;77.70;;;;;;5042755;28;45409;-73
2023/05/11 04:06:25;;;;;;;2.75;1.83;;;19.40;77.70;;;;;;5042508;28;46585;-73
2023/05/11 04:08:52;;;;;;;2.60;1.90;;;19.40;77.70;;;;;;5042547;28;45249;-73
2023/05/11 04:11:19;;;;;;;2.60;1.95;;;19.40;77.70;;;;;;5042809;28;45351;-73
2023/05/11 04:13:48;;;;;;;2.03;1.67;;;19.50;77.80;;;;;;5042559;28;45312;-73
2023/05/11 04:16:15;;;;;;;3.33;2.10;;;19.40;77.70;;;;;;5042319;28;45284;-73
2023/05/11 04:18:43;;;;;;;2.80;2.22;;;19.40;77.70;;;;;;5042589;28;45189;-73
2023/05/11 04:21:10;;;;;;;3.08;2.20;;;19.40;77.70;;;;;;5042594;28;45324;-73
2023/05/11 04:23:37;;;;;;;2.08;1.80;;;19.40;77.70;;;;;;5042865;27;45219;-73
2023/05/11 04:26:04;;;;;;;3.00;1.88;;;19.40;77.70;;;;;;5041308;28;46306;-73
2023/05/11 04:28:30;;;;;;;3.55;2.20;;;19.40;77.70;;;;;;5042611;28;45198;-73
2023/05/11 04:30:57;;;;;;;4.22;2.10;;;19.40;77.70;;;;;;5034890;28;45403;-73
2023/05/11 04:33:25;;;;;;;3.22;2.40;;;19.40;77.70;;;;;;5042752;28;45388;-73
2023/05/11 04:35:54;;;;;;;3.13;2.13;;;19.40;77.70;;;;;;5041654;28;46223;-73
2023/05/11 04:38:22;;;;;;;2.90;2.28;;;19.40;77.70;;;;;;5041838;28;45255;-73
2023/05/11 04:40:49;;;;;;;3.58;2.20;;;19.40;77.70;;;;;;5041203;27;45410;-74
2023/05/11 04:43:16;;;;;;;2.50;2.20;;;19.40;77.80;;;;;;5034619;28;45253;-73
2023/05/11 04:45:47;;;;;;;2.83;2.20;;;19.40;77.70;;;;;;5041034;28;48580;-73
2023/05/11 04:48:14;;;;;;;2.30;1.88;;;19.40;77.70;;;;;;5042012;28;45381;-73
2023/05/11 04:50:41;;;;;;;3.50;2.20;;;19.40;77.70;;;;;;5041323;28;45364;-73
2023/05/11 04:53:09;;;;;;;2.60;2.20;;;19.40;77.70;;;;;;5042299;28;45372;-73
2023/05/11 04:55:36;;;;;;;3.42;2.30;;;19.40;77.70;;;;;;5041391;28;46516;-73
2023/05/11 04:58:03;;;;;;;2.42;2.20;;;19.40;77.70;;;;;;5041908;28;45201;-73
2023/05/11 05:00:30;;;;;;;2.67;2.05;;;19.40;77.70;;;;;;5042223;28;45264;-73
2023/05/11 05:02:56;;;;;;;4.47;2.30;;;19.40;77.70;;;;;;5041915;28;45572;-74
2023/05/11 05:05:23;;;;;;;2.88;2.15;;;19.40;77.70;;;;;;5041587;28;47045;-73
2023/05/11 05:07:50;;;;;;;2.97;2.28;;;19.40;77.70;;;;;;5041278;28;45869;-74
2023/05/11 05:10:19;;;;;;;2.60;1.92;;;19.40;77.70;;;;;;5041918;28;45133;-74
2023/05/11 05:12:45;;;;;;;2.90;2.22;;;19.40;77.70;;;;;;5041771;28;45319;-73
2023/05/11 05:15:12;;;;;;;2.67;2.30;;;19.40;77.70;;;;;;5041315;28;46583;-73
2023/05/11 05:17:39;;;;;;;4.53;2.47;;;19.40;77.70;;;;;;5041614;27;45368;-74
2023/05/11 05:20:07;;;;;;;2.67;2.25;;;19.40;77.70;;;;;;5041616;28;45298;-74
2023/05/11 05:22:34;;;;;;;3.53;2.60;;;19.40;77.70;;;;;;5041836;28;45439;-73
2023/05/11 05:25:01;;;;;;;3.65;2.65;;;19.40;77.70;;;;;;5041716;28;47908;-74
2023/05/11 05:27:30;;;;;;;3.55;2.28;;;19.40;77.70;;;;;;5041975;28;45426;-74
2023/05/11 05:29:56;;;;;;;2.55;2.10;;;19.50;77.80;;;;;;5041865;28;45322;-74
2023/05/11 05:32:23;;;;;;;4.88;2.80;;;19.50;77.80;;;;;;5041830;28;45131;-73
2023/05/11 05:34:50;;;;;;;2.78;1.92;;;19.50;77.80;;;;;;5041117;28;47952;-74
2023/05/11 05:37:17;;;;;;;3.88;2.22;;;19.50;77.80;;;;;;5040908;28;45850;-74
2023/05/11 05:39:44;;;;;;;3.05;2.40;;;19.50;77.80;;;;;;5041929;28;45306;-73
2023/05/11 05:42:10;;;;;;;3.28;2.50;;;19.50;77.80;;;;;;5041752;28;45450;-74
2023/05/11 05:44:38;;;;;;;2.63;2.13;;;19.50;77.80;;;;;;5041262;28;47886;-74
2023/05/11 05:47:06;;;;;;;3.72;2.58;;;19.50;77.80;;;;;;5040014;28;45392;-74
2023/05/11 05:49:32;;;;;;;3.83;2.35;;;19.50;77.80;;;;;;5041696;28;45246;-74
2023/05/11 05:51:59;;;;;;;4.53;2.80;;;19.50;77.80;;;;;;5040174;28;45323;-74
2023/05/11 05:54:26;;;;;;;3.78;2.60;;;19.50;78.00;;;;;;5041389;28;47079;-74
2023/05/11 05:56:53;;;;;;;3.75;2.58;;;19.50;78.10;;;;;;5040646;28;45376;-73
2023/05/11 05:59:22;;;;;;;3.33;2.67;;;19.50;77.80;;;;;;5040870;28;45260;-74
2023/05/11 06:01:50;;;;;;;3.45;2.47;;;19.50;77.80;;;;;;5041377;28;45346;-74
2023/05/11 06:04:17;;;;;;;3.58;2.17;;;19.50;77.80;;;;;;5040857;28;47360;-74
2023/05/11 06:06:44;;;;;;;5.28;2.47;;;19.50;77.90;;;;;;5040663;28;45396;-74
2023/05/11 06:09:11;;;;;;;4.88;3.08;;;19.40;77.80;;;;;;5041163;28;45313;-73
2023/05/11 06:11:38;;;;;;;4.20;2.53;;;19.40;78.00;;;;;;5041167;28;45567;-74
2023/05/11 06:14:05;;;;;;;3.95;2.53;;;19.40;77.70;;;;;;5040634;28;47297;-73
2023/05/11 06:16:32;;;;;;;4.15;2.20;;;19.50;77.80;;;;;;5040345;28;45294;-74
2023/05/11 06:19:00;;;;;;;4.00;2.40;;;19.50;77.80;;;;;;5040793;28;45350;-73
2023/05/11 06:21:27;;;;;;;3.15;2.38;;;19.50;77.80;;;;;;5040615;28;45697;-74
2023/05/11 06:23:53;;;;;;;3.40;2.28;;;19.50;77.80;;;;;;5040819;28;47497;-73
2023/05/11 06:26:23;;;;;;;3.58;2.47;;;19.50;77.80;;;;;;5040265;28;45161;-73
2023/05/11 06:28:50;;;;;;;3.15;2.63;;;19.50;77.80;;;;;;5040656;28;45262;-74
2023/05/11 06:31:17;;;;;;;3.85;3.13;;;19.50;77.80;;;;;;5041040;28;45357;-73
2023/05/11 06:33:44;;;;;;;4.07;2.67;;;19.50;77.80;;;;;;5040615;28;47975;-74
2023/05/11 06:36:12;;;;;;;3.60;2.85;;;19.50;77.80;;;;;;5040150;28;45334;-74
2023/05/11 06:38:39;;;;;;;3.70;2.63;;;19.50;77.80;;;;;;5040608;28;45279;-74
2023/05/11 06:41:06;;;;;;;4.93;2.70;;;19.50;77.80;;;;;;5040438;28;45531;-73
2023/05/11 06:43:33;;;;;;;4.65;2.75;;;19.50;77.80;;;;;;5040199;28;46304;-73
2023/05/11 06:45:59;;;;;;;5.57;2.67;;;19.50;77.80;;;;;;5038951;28;45793;-73
2023/05/11 06:48:28;;;;;;;2.88;2.30;;;19.50;78.90;;;;;;5040491;28;45335;-73
2023/05/11 06:50:55;;;;;;;4.57;2.50;;;19.50;77.80;;;;;;5038161;28;45470;-73
2023/05/11 06:53:23;;;;;;;3.35;2.38;;;19.50;77.80;;;;;;5040191;28;47165;-73
2023/05/11 06:55:50;;;;;;;3.22;2.17;;;19.40;77.70;;;;;;5039289;28;45293;-74
2023/05/11 06:58:19;;;;;;;3.78;2.10;;;19.40;77.70;;;;;;5040028;28;45282;-73
2023/05/11 07:00:46;;;;;;;3.42;2.55;;;19.50;77.80;;;;;;5040204;28;45480;-73
2023/05/11 07:03:12;;;;;;;3.00;2.30;;;19.50;77.80;;;;;;5039879;28;47667;-73
2023/05/11 07:05:39;;;;;;;2.72;2.13;;;19.50;77.80;;;;;;5042589;28;45665;-73
2023/05/11 07:08:06;;;;;;;2.72;2.35;;;19.50;77.80;;;;;;5043333;28;45307;-73
2023/05/11 07:10:34;;;;;;;4.15;2.33;;;19.50;77.80;;;;;;5043428;28;45402;-73
2023/05/11 07:13:01;;;;;;;3.35;2.10;;;19.50;77.80;;;;;;5043037;28;45266;-73
2023/05/11 07:15:28;;;;;;;4.63;2.50;;;19.50;77.80;;;;;;5042797;28;45366;-73
2023/05/11 07:17:54;;;;;;;3.50;2.40;;;19.50;77.80;;;;;;5042819;28;45248;-73
2023/05/11 07:20:21;;;;;;;4.50;1.83;;;19.50;77.80;;;;;;5043470;28;45505;-73
2023/05/11 07:22:48;;;;;;;3.20;2.22;;;19.50;77.80;;;;;;5043030;28;48049;-73
2023/05/11 07:25:15;;;;;;;4.30;2.20;;;19.50;77.80;;;;;;5043140;28;45237;-74
2023/05/11 07:27:43;;;;;;;2.97;2.10;;;19.50;77.80;;;;;;5043380;28;45258;-73
2023/05/11 07:30:10;;;;;;;2.60;1.95;;;19.50;77.80;;;;;;5043061;28;45583;-74
2023/05/11 07:32:37;;;;;;;4.40;2.30;;;19.50;77.80;;;;;;5042866;28;48300;-73
2023/05/11 07:35:04;;;;;;;3.45;2.38;;;19.50;77.80;;;;;;5042412;28;45371;-73
2023/05/11 07:37:31;;;;;;;3.58;2.30;;;19.50;77.80;;;;;;5042731;28;45334;-73
2023/05/11 07:39:58;;;;;;;3.60;2.15;;;19.50;77.80;;;;;;5042776;28;45363;-73
2023/05/11 07:42:25;;;;;;;3.00;2.00;;;19.50;77.80;;;;;;5042739;28;46073;-73
2023/05/11 07:44:53;;;;;;;4.13;2.45;;;19.50;77.80;;;;;;5042757;28;45410;-73
2023/05/11 07:47:20;;;;;;;5.07;2.17;;;19.50;77.80;;;;;;5042455;28;45355;-73
2023/05/11 07:49:47;;;;;;;4.38;2.72;;;19.50;77.80;;;;;;5043090;28;45414;-73
2023/05/11 07:52:14;;;;;;;2.67;2.10;;;19.50;77.80;;;;;;5041610;28;47365;-73
2023/05/11 07:54:41;;;;;;;3.30;2.35;;;19.50;77.80;;;;;;5042610;28;45325;-73
2023/05/11 07:57:10;;;;;;;3.10;2.28;;;19.50;77.80;;;;;;5042093;28;45224;-73
2023/05/11 07:59:37;;;;;;;2.85;2.13;;;19.50;78.20;;;;;;5043009;28;45297;-73
2023/05/11 08:02:06;;;;;;;4.18;2.25;;;19.50;77.80;;;;;;5042526;28;47528;-73
2023/05/11 08:04:33;;;;;;;4.25;2.63;;;19.50;77.80;;;;;;5042443;28;45325;-73
2023/05/11 08:07:00;;;;;;;4.32;2.42;;;19.50;77.80;;;;;;5042259;28;45605;-73
2023/05/11 08:09:27;;;;;;;3.85;2.30;;;19.50;77.80;;;;;;5043044;28;45317;-73
2023/05/11 08:11:55;;;;;;;4.10;2.65;;;19.50;77.80;;;;;;5042779;28;47836;-72
2023/05/11 08:14:22;;;;;;;3.75;2.70;;;19.50;77.80;;;;;;5042140;28;45365;-73
2023/05/11 08:16:49;;;;;;;3.22;2.40;;;19.50;77.80;;;;;;5042015;28;45183;-73
2023/05/11 08:19:17;;;;;;;5.32;2.83;;;19.50;77.80;;;;;;5022778;28;45343;-73
2023/05/11 08:21:45;;;;;;;3.95;2.67;;;19.50;77.80;;;;;;5037747;28;45360;-73
2023/05/11 08:24:12;;;;;;;4.45;2.53;;;19.50;77.80;;;;;;5042218;28;45415;-73
2023/05/11 08:26:38;;;;;;;4.18;3.05;;;19.50;77.80;;;;;;5042328;27;45209;-73
2023/05/11 08:29:05;;;;;;;4.82;2.72;;;19.50;77.80;;;;;;5042389;28;45370;-73
2023/05/11 08:31:32;;;;;;;3.83;2.67;;;19.50;77.80;;;;;;5042203;28;45592;-73
2023/05/11 08:33:59;;;;;;;3.72;2.70;;;19.50;77.80;;;;;;5042177;28;45408;-73
2023/05/11 08:36:27;;;;;;;4.47;2.50;;;19.50;77.80;;;;;;5037872;28;45516;-73
2023/05/11 08:38:54;;;;;;;6.43;2.70;;;19.50;77.80;;;;;;5039345;28;45142;-73
2023/05/11 08:41:20;;;;;;;4.35;2.50;;;19.50;77.80;;;;;;5042131;28;47100;-73
2023/05/11 08:43:48;;;;;;;3.90;2.58;;;19.50;77.80;;;;;;5041627;28;45313;-73
2023/05/11 08:46:21;;;;;;;4.75;2.83;;;19.50;77.80;;;;;;5040653;28;45313;-73
2023/05/11 08:48:48;;;;;;;5.85;3.13;;;19.50;77.80;;;;;;5042207;28;45407;-73
2023/05/11 08:51:15;;;;;;;6.38;2.80;;;19.50;77.80;;;;;;5040426;28;48530;-73
2023/05/11 08:53:45;;;;;;;4.95;2.90;;;19.50;77.80;;;;;;5041716;28;45990;-73
2023/05/11 08:56:12;;;;;;;3.75;2.45;;;19.50;77.80;;;;;;5041983;27;45295;-73
2023/05/11 08:58:40;;;;;;;3.55;2.47;;;19.50;77.80;;;;;;5041776;28;45447;-73
2023/05/11 09:01:07;;;;;;;3.20;2.47;;;19.50;77.80;;;;;;5041837;28;47490;-72
2023/05/11 09:03:35;;;;;;;3.67;2.63;;;19.50;77.80;;;;;;5041824;28;45294;-73
2023/05/11 09:06:05;;;;;;;5.85;3.13;;;19.50;77.80;;;;;;5041866;28;45508;-73
2023/05/11 09:08:34;;;;;;;4.22;2.63;;;19.50;77.80;;;;;;5041937;27;45488;-72
2023/05/11 09:11:03;;;;;;;3.45;2.67;;;19.50;77.80;;;;;;5041595;28;45486;-73
2023/05/11 09:13:30;;;;;;;3.85;2.40;;;19.50;77.80;;;;;;5041488;28;45401;-73
2023/05/11 09:15:57;;;;;;;4.22;2.47;;;19.50;77.80;;;;;;5041725;28;45207;-73
2023/05/11 09:18:24;;;;;;;3.97;2.40;;;19.50;77.80;;;;;;5041823;28;45428;-73
2023/05/11 09:20:51;;;;;;;3.38;2.30;;;19.50;77.80;;;;;;5041948;27;45746;-73
2023/05/11 09:23:25;;;;;;;6.55;2.85;;;19.50;77.80;;;;;;5041612;28;45616;-73
2023/05/11 09:25:52;;;;;;;4.18;2.72;;;19.50;77.80;;;;;;5041212;28;45352;-73
2023/05/11 09:28:23;;;;;;;4.63;2.92;;;19.50;77.80;;;;;;5041063;28;45216;-73
2023/05/11 09:30:50;;;;;;;6.15;2.97;;;19.50;77.80;;;;;;5041918;28;47681;-73
2023/05/11 09:33:22;;;;;;;7.47;3.47;;;19.50;77.60;;;;;;5041461;28;45355;-73
2023/05/11 09:35:50;;;;;;;4.80;2.55;;;19.50;77.50;;;;;;5041701;28;45212;-74
2023/05/11 09:38:18;;;;;;;5.80;2.92;;;19.50;77.40;;;;;;5025170;28;45164;-73
2023/05/11 09:40:52;;;;;;;4.57;3.03;;;19.50;77.40;;;;;;5041214;28;47624;-73
2023/05/11 09:43:20;;;;;;;4.45;2.83;;;19.50;77.40;;;;;;5025078;28;45304;-73
2023/05/11 09:45:49;;;;;;;4.97;2.97;;;19.50;77.30;;;;;;5040840;28;45366;-73
2023/05/11 09:48:27;;;;;;;4.65;2.88;;;19.50;77.10;;;;;;5041173;28;45403;-73
2023/05/11 09:51:01;;;;;;;5.85;2.85;;;19.50;77.20;;;;;;5038031;28;45343;-73
2023/05/11 09:53:36;;;;;;;4.50;3.05;;;19.50;77.20;;;;;;5041317;28;45297;-73
2023/05/11 09:56:03;;;;;;;3.75;2.53;;;19.50;77.20;;;;;;5040962;28;45461;-73
2023/05/11 09:58:49;;;;;;;4.70;2.60;;;19.50;77.30;;;;;;5040757;28;45371;-73
2023/05/11 10:01:19;;;;;;;3.80;2.60;;;19.50;77.10;;;;;;5041225;28;45470;-73
2023/05/11 10:03:47;;;;;;;3.95;2.33;;;19.50;77.10;;;;;;5041191;28;45121;-73
2023/05/11 10:06:14;;;;;;;4.07;2.60;;;19.50;77.10;;;;;;5040863;28;45361;-73
2023/05/11 10:08:42;;;;;;;4.78;2.78;;;19.50;77.10;;;;;;5041537;28;45408;-73
2023/05/11 10:11:09;;;;;;;4.50;2.83;;;19.60;77.10;;;;;;5040904;28;45287;-73
2023/05/11 10:13:36;;;;;;;4.45;2.58;;;19.50;77.00;;;;;;5040934;28;45245;-73
2023/05/11 10:16:04;;;;;;;4.10;2.25;;;19.50;76.90;;;;;;5040471;28;45429;-73
2023/05/11 10:18:33;;;;;;;8.60;2.80;;;19.50;76.90;;;;;;5040746;27;45577;-73
2023/05/11 10:21:00;;;;;;;4.88;2.40;;;19.50;76.80;;;;;;5040249;28;46306;-73
2023/05/11 10:23:27;;;;;;;4.55;2.60;;;19.50;76.80;;;;;;5040621;28;45289;-73
2023/05/11 10:25:54;;;;;;;4.50;2.55;;;19.50;76.60;;;;;;5040176;28;45457;-73
2023/05/11 10:28:22;;;;;;;4.80;2.63;;;19.50;76.60;;;;;;5040372;27;45482;-73
2023/05/11 10:30:49;;;;;;;3.47;2.40;;;19.50;76.60;;;;;;5040428;28;46541;-73
2023/05/11 10:33:17;;;;;;;5.75;2.88;;;19.50;76.60;;;;;;5040419;28;45308;-73
2023/05/11 10:35:46;;;;;;;3.45;2.10;;;19.50;76.60;;;;;;5033844;28;45281;-72
2023/05/11 10:38:13;;;;;;;4.05;2.58;;;19.50;76.60;;;;;;5039863;28;45235;-73
2023/05/11 10:40:42;;;;;;;3.67;2.63;;;19.50;76.60;;;;;;5043423;28;45444;-71
2023/05/11 10:43:41;;;;;;;3.22;2.22;;;19.50;76.70;;;;;;5043153;28;45433;-74
2023/05/11 10:46:21;;;;;;;4.78;2.60;;;19.50;76.60;;;;;;5041135;28;45263;-74
2023/05/11 10:49:14;;;;;;;4.78;2.53;;;19.50;76.70;;;;;;5043772;28;45302;-73
2023/05/11 10:51:53;;;;;;;3.97;2.30;;;19.50;76.80;;;;;;5041802;28;48589;-73
2023/05/11 10:54:34;;;;;;;4.05;2.45;;;19.60;76.70;;;;;;5035819;28;45256;-73
2023/05/11 10:57:13;;;;;;;4.50;2.38;;;19.60;76.70;;;;;;5043180;27;45215;-73
2023/05/11 10:59:56;;;;;;;5.20;2.38;;;19.50;76.60;;;;;;5040566;28;45293;-73
2023/05/11 11:02:24;;;;;;;4.00;2.45;;;19.60;76.60;;;;;;5043594;27;45326;-73
2023/05/11 11:04:51;;;;;;;4.25;2.75;;;19.60;76.50;;;;;;5043834;28;45394;-73
2023/05/11 11:07:20;;;;;;;5.13;2.47;;;19.60;76.50;;;;;;5043099;28;45266;-73
2023/05/11 11:09:52;;;;;;;3.85;2.30;;;19.60;76.50;;;;;;5043717;28;45251;-73
2023/05/11 11:12:19;;;;;;;3.35;2.45;;;19.60;76.40;;;;;;5043390;28;45343;-73
2023/05/11 11:14:57;;;;;;;3.45;2.40;;;19.60;76.30;;;;;;5043292;28;45271;-73
2023/05/11 11:17:26;;;;;;;3.80;2.45;;;19.50;76.20;;;;;;5043323;27;45324;-73
2023/05/11 11:19:53;;;;;;;3.65;2.50;;;19.60;76.30;;;;;;5043663;27;45348;-73
2023/05/11 11:22:49;;;;;;;3.17;2.40;;;19.60;76.20;;;;;;5043022;28;48076;-73
2023/05/11 11:25:51;;;;;;;3.15;2.40;;;19.50;76.00;;;;;;5042884;28;45355;-73
2023/05/11 11:28:20;;;;;;;5.32;2.33;;;19.60;76.20;;;;;;5041269;28;45396;-73
2023/05/11 11:30:46;;;;;;;3.30;2.30;;;19.60;76.20;;;;;;5043452;28;45256;-72
2023/05/11 11:33:36;;;;;;;3.55;2.33;;;19.60;76.10;;;;;;5043064;28;45511;-73
2023/05/11 11:36:03;;;;;;;3.25;1.88;;;19.60;76.10;;;;;;5033129;28;46370;-73
2023/05/11 11:38:32;;;;;;;4.38;2.38;;;19.60;76.10;;;;;;5036445;28;45256;-73
2023/05/11 11:40:59;;;;;;;4.88;2.30;;;19.60;76.10;;;;;;5043340;28;45258;-73
2023/05/11 11:43:42;;;;;;;3.42;2.40;;;19.60;76.20;;;;;;5043006;28;46617;-73
2023/05/11 11:46:09;;;;;;;3.90;2.20;;;19.60;76.10;;;;;;5041953;28;45309;-73
2023/05/11 11:48:37;;;;;;;4.05;2.30;;;19.60;76.00;;;;;;5042888;27;45309;-73
2023/05/11 11:51:06;;;;;;;5.85;1.95;;;19.60;75.90;;;;;;5042078;27;45561;-73
2023/05/11 11:54:06;;;;;;;3.58;2.00;;;19.60;75.90;;;;;;5042923;28;47014;-73
2023/05/11 11:56:43;;;;;;;2.88;1.90;;;19.60;76.10;;;;;;5042244;28;46078;-73
2023/05/11 11:59:15;;;;;;;3.38;2.30;;;19.60;76.00;;;;;;5042658;28;45243;-73
2023/05/11 12:01:43;;;;;;;4.65;2.28;;;19.60;76.00;;;;;;5042757;28;45248;-73
2023/05/11 12:04:40;;;;;;;2.60;2.00;;;19.60;76.00;;;;;;5042351;27;45469;-73
2023/05/11 12:07:09;;;;;;;3.63;1.65;;;19.50;75.90;;;;;;5037699;28;45544;-73
2023/05/11 12:09:38;;;;;;;3.80;2.10;;;19.60;76.10;;;;;;5042451;27;45486;-73
2023/05/11 12:12:08;;;;;;;4.45;2.20;;;19.60;76.20;;;;;;5042194;28;45724;-73
2023/05/11 12:14:36;;;;;;;4.05;2.20;;;19.60;76.10;;;;;;5041656;28;47990;-73
2023/05/11 12:17:07;;;;;;;3.30;2.33;;;19.60;76.20;;;;;;5042108;28;45372;-73
2023/05/11 12:19:35;;;;;;;2.88;1.98;;;19.60;76.20;;;;;;5042609;28;45259;-73
2023/05/11 12:22:01;;;;;;;3.47;2.20;;;19.60;76.10;;;;;;5042475;28;45313;-73
2023/05/11 12:24:28;;;;;;;4.13;2.03;;;19.60;76.20;;;;;;5042030;28;46297;-73
2023/05/11 12:26:57;;;;;;;4.22;2.10;;;19.60;76.20;;;;;;5042114;28;45311;-73
2023/05/11 12:29:24;;;;;;;2.80;1.90;;;19.60;76.10;;;;;;5042113;28;45263;-73
2023/05/11 12:31:53;;;;;;;3.38;1.70;;;19.60;76.20;;;;;;5042510;27;45419;-73
2023/05/11 12:34:21;;;;;;;3.10;2.10;;;19.50;76.00;;;;;;5041929;28;46607;-73
2023/05/11 12:36:49;;;;;;;3.90;1.90;;;19.60;76.10;;;;;;5041886;28;45217;-73
2023/05/11 12:39:21;;;;;;;4.25;2.20;;;19.60;76.20;;;;;;5042304;28;45309;-73
2023/05/11 12:41:49;;;;;;;4.18;2.00;;;19.60;76.20;;;;;;5042506;27;45317;-73
2023/05/11 12:44:16;;;;;;;4.18;2.13;;;19.60;76.10;;;;;;5041388;27;46507;-73
2023/05/11 12:46:44;;;;;;;4.43;1.88;;;19.60;76.10;;;;;;5040678;28;45420;-73
2023/05/11 12:49:13;;;;;;;2.38;1.90;;;19.50;75.90;;;;;;5042226;28;45500;-73
2023/05/11 12:51:46;;;;;;;3.78;2.00;;;19.60;76.10;;;;;;5041785;28;45349;-73
2023/05/11 12:54:12;;;;;;;3.42;1.85;;;19.60;76.10;;;;;;5041778;28;46574;-73
2023/05/11 12:56:46;;;;;;;2.65;1.77;;;19.60;76.20;;;;;;5041953;28;45431;-73
2023/05/11 12:59:36;;;;;;;2.30;1.88;;;19.60;76.20;;;;;;5041959;28;45392;-73